createdAt,value
2022-11-01T00:01:24.275Z,59.00
2022-11-01T00:03:50.784Z,59.00
2022-11-01T00:06:21.773Z,59.00
2022-11-01T00:08:48.256Z,59.10
2022-11-01T00:11:15.799Z,59.10
2022-11-01T00:13:42.286Z,59.00
2022-11-01T00:16:08.765Z,59.00
2022-11-01T00:18:35.252Z,59.00
2022-11-01T00:21:01.760Z,59.00
2022-11-01T00:23:28.227Z,59.00
2022-11-01T00:25:54.692Z,59.10
2022-11-01T00:28:21.165Z,59.00
2022-11-01T00:30:47.652Z,59.00
2022-11-01T00:33:14.136Z,59.00
2022-11-01T00:35:40.629Z,59.00
2022-11-01T00:38:07.104Z,58.90
2022-11-01T00:40:33.588Z,59.00
2022-11-01T00:43:00.056Z,58.90
2022-11-01T00:45:26.560Z,59.00
2022-11-01T00:47:53.030Z,59.00
2022-11-01T00:50:19.521Z,59.00
2022-11-01T00:52:45.986Z,58.90
2022-11-01T00:55:12.487Z,58.90
2022-11-01T00:57:38.954Z,58.90
2022-11-01T01:00:05.459Z,58.90
2022-11-01T01:02:32.032Z,58.90
2022-11-01T01:04:58.553Z,58.90
2022-11-01T01:07:25.025Z,58.90
2022-11-01T01:09:51.491Z,58.80
2022-11-01T01:12:17.974Z,58.80
2022-11-01T01:14:44.454Z,58.80
2022-11-01T01:17:10.922Z,58.90
2022-11-01T01:19:37.389Z,58.90
2022-11-01T01:22:03.865Z,58.80
2022-11-01T01:24:30.335Z,58.80
2022-11-01T01:26:56.818Z,58.90
2022-11-01T01:29:23.300Z,58.90
2022-11-01T01:31:49.764Z,58.90
2022-11-01T01:34:16.248Z,58.90
2022-11-01T01:36:42.724Z,59.00
2022-11-01T01:39:09.200Z,59.00
2022-11-01T01:41:35.678Z,58.90
2022-11-01T01:44:02.162Z,58.90
2022-11-01T01:46:28.656Z,58.90
2022-11-01T01:48:55.132Z,58.90
2022-11-01T01:51:21.605Z,59.00
2022-11-01T01:53:52.042Z,58.90
2022-11-01T01:56:18.538Z,59.00
2022-11-01T01:58:45.020Z,59.00
2022-11-01T02:01:16.033Z,59.10
2022-11-01T02:03:42.569Z,59.00
2022-11-01T02:06:10.203Z,59.00
2022-11-01T02:08:36.735Z,59.10
2022-11-01T02:11:03.230Z,59.00
2022-11-01T02:13:29.703Z,59.10
2022-11-01T02:15:56.218Z,59.10
2022-11-01T02:18:22.697Z,59.20
2022-11-01T02:20:49.186Z,59.20
2022-11-01T02:23:15.658Z,59.20
2022-11-01T02:25:42.166Z,59.20
2022-11-01T02:28:08.647Z,59.20
2022-11-01T02:30:35.139Z,59.20
2022-11-01T02:33:01.946Z,59.30
2022-11-01T02:35:33.908Z,59.20
2022-11-01T02:38:00.375Z,59.30
2022-11-01T02:40:26.854Z,59.20
2022-11-01T02:42:53.335Z,59.20
2022-11-01T02:45:19.806Z,59.20
2022-11-01T02:47:46.295Z,59.30
2022-11-01T02:50:12.784Z,59.30
2022-11-01T02:52:39.274Z,59.30
2022-11-01T02:55:05.758Z,59.20
2022-11-01T02:57:32.218Z,59.30
2022-11-01T02:59:58.697Z,59.40
2022-11-01T03:02:25.196Z,59.20
2022-11-01T03:04:51.682Z,59.30
2022-11-01T03:07:18.169Z,59.30
2022-11-01T03:09:44.651Z,59.30
2022-11-01T03:12:11.120Z,59.30
2022-11-01T03:14:39.901Z,59.30
2022-11-01T03:17:06.379Z,59.30
2022-11-01T03:19:32.860Z,59.40
2022-11-01T03:21:59.336Z,59.30
2022-11-01T03:24:25.827Z,59.40
2022-11-01T03:26:52.298Z,59.40
2022-11-01T03:29:18.757Z,59.30
2022-11-01T03:31:45.244Z,59.30
2022-11-01T03:34:11.730Z,59.30
2022-11-01T03:36:38.217Z,59.40
2022-11-01T03:39:04.690Z,59.40
2022-11-01T03:41:31.198Z,59.30
2022-11-01T03:43:57.666Z,59.40
2022-11-01T03:46:24.140Z,59.30
2022-11-01T03:48:50.610Z,59.40
2022-11-01T03:51:17.085Z,59.30
2022-11-01T03:53:43.549Z,59.40
2022-11-01T03:56:10.290Z,59.40
2022-11-01T03:58:36.874Z,59.40
2022-11-01T04:01:03.383Z,59.40
2022-11-01T04:03:29.891Z,59.40
2022-11-01T04:05:56.379Z,59.40
2022-11-01T04:08:22.855Z,59.40
2022-11-01T04:10:49.332Z,59.40
2022-11-01T04:13:15.791Z,59.30
2022-11-01T04:15:42.277Z,59.40
2022-11-01T04:18:08.744Z,59.40
2022-11-01T04:20:35.247Z,59.40
2022-11-01T04:23:01.967Z,59.40
2022-11-01T04:25:28.674Z,59.50
2022-11-01T04:27:55.163Z,59.50
2022-11-01T04:30:21.646Z,59.50
2022-11-01T04:32:48.125Z,59.40
2022-11-01T04:35:14.620Z,59.50
2022-11-01T04:37:41.104Z,59.60
2022-11-01T04:40:07.579Z,59.60
2022-11-01T04:42:40.030Z,59.50
2022-11-01T04:45:06.522Z,59.50
2022-11-01T04:47:33.013Z,59.50
2022-11-01T04:49:59.507Z,59.50
2022-11-01T04:52:26.001Z,59.60
2022-11-01T04:54:52.484Z,59.50
2022-11-01T04:57:18.980Z,59.60
2022-11-01T04:59:45.447Z,59.60
2022-11-01T05:02:11.991Z,59.60
2022-11-01T05:04:38.530Z,59.60
2022-11-01T05:07:05.019Z,59.50
2022-11-01T05:09:31.512Z,59.40
2022-11-01T05:11:58.021Z,59.60
2022-11-01T05:14:24.476Z,59.60
2022-11-01T05:16:50.947Z,59.60
2022-11-01T05:19:17.428Z,59.60
2022-11-01T05:21:43.942Z,59.60
2022-11-01T05:24:10.409Z,59.60
2022-11-01T05:26:36.911Z,59.60
2022-11-01T05:29:08.828Z,59.60
2022-11-01T05:31:39.971Z,59.60
2022-11-01T05:34:06.462Z,59.60
2022-11-01T05:36:32.950Z,59.60
2022-11-01T05:38:59.432Z,59.60
2022-11-01T05:41:25.925Z,59.60
2022-11-01T05:43:52.412Z,59.60
2022-11-01T05:46:18.869Z,59.60
2022-11-01T05:48:45.339Z,59.60
2022-11-01T05:51:11.801Z,59.60
2022-11-01T05:53:38.305Z,59.50
2022-11-01T05:56:04.797Z,59.60
2022-11-01T05:58:31.275Z,59.60
2022-11-01T06:00:57.751Z,59.50
2022-11-01T06:03:24.258Z,59.60
2022-11-01T06:05:50.727Z,59.60
2022-11-01T06:08:17.201Z,59.60
2022-11-01T06:10:43.691Z,59.60
2022-11-01T06:13:10.197Z,59.70
2022-11-01T06:15:38.884Z,59.70
2022-11-01T06:18:06.529Z,59.70
2022-11-01T06:20:33.152Z,59.70
2022-11-01T06:22:59.656Z,59.70
2022-11-01T06:25:26.130Z,59.70
2022-11-01T06:27:52.611Z,59.60
2022-11-01T06:30:19.101Z,59.70
2022-11-01T06:32:45.598Z,59.70
2022-11-01T06:35:12.072Z,59.70
2022-11-01T06:37:38.554Z,59.70
2022-11-01T06:40:05.009Z,59.70
2022-11-01T06:42:31.499Z,59.70
2022-11-01T06:44:57.965Z,59.70
2022-11-01T06:47:24.499Z,59.70
2022-11-01T06:49:50.984Z,59.70
2022-11-01T06:52:17.473Z,59.70
2022-11-01T06:54:43.942Z,59.70
2022-11-01T06:57:10.441Z,59.70
2022-11-01T06:59:36.901Z,59.70
2022-11-01T07:02:03.553Z,59.80
2022-11-01T07:04:30.085Z,59.80
2022-11-01T07:06:56.566Z,59.80
2022-11-01T07:09:23.050Z,59.80
2022-11-01T07:11:49.537Z,59.80
2022-11-01T07:14:16.020Z,59.70
2022-11-01T07:16:42.500Z,59.70
2022-11-01T07:19:08.967Z,59.70
2022-11-01T07:21:35.432Z,59.70
2022-11-01T07:24:01.927Z,59.60
2022-11-01T07:26:28.409Z,59.60
2022-11-01T07:28:54.898Z,59.70
2022-11-01T07:31:21.378Z,59.60
2022-11-01T07:33:47.866Z,59.50
2022-11-01T07:36:14.349Z,59.30
2022-11-01T07:38:40.826Z,59.30
2022-11-01T07:41:07.313Z,59.30
2022-11-01T07:43:34.159Z,59.30
2022-11-01T07:46:00.650Z,59.20
2022-11-01T07:48:27.144Z,59.20
2022-11-01T07:50:53.608Z,59.30
2022-11-01T07:53:20.097Z,59.10
2022-11-01T07:55:46.609Z,59.10
2022-11-01T07:58:13.081Z,59.10
2022-11-01T08:00:39.560Z,59.20
2022-11-01T08:03:06.248Z,58.90
2022-11-01T08:05:32.870Z,58.90
2022-11-01T08:08:04.632Z,59.10
2022-11-01T08:10:31.242Z,58.80
2022-11-01T08:12:57.753Z,59.00
2022-11-01T08:15:24.237Z,58.90
2022-11-01T08:17:50.700Z,58.80
2022-11-01T08:20:17.171Z,58.90
2022-11-01T08:22:43.680Z,58.70
2022-11-01T08:25:10.162Z,58.40
2022-11-01T08:27:36.659Z,58.80
2022-11-01T08:30:03.132Z,58.20
2022-11-01T08:32:29.627Z,58.30
2022-11-01T08:34:56.105Z,58.00
2022-11-01T08:37:22.629Z,58.20
2022-11-01T08:39:49.103Z,57.80
2022-11-01T08:42:15.575Z,57.80
2022-11-01T08:44:42.064Z,58.00
2022-11-01T08:47:08.571Z,57.70
2022-11-01T08:49:40.365Z,57.60
2022-11-01T08:52:06.867Z,57.50
2022-11-01T08:54:33.348Z,57.80
2022-11-01T08:56:59.833Z,57.90
2022-11-01T08:59:26.307Z,58.00
2022-11-01T09:01:52.879Z,57.90
2022-11-01T09:04:19.495Z,57.70
2022-11-01T09:06:45.994Z,57.80
2022-11-01T09:09:12.465Z,57.70
2022-11-01T09:11:38.967Z,57.80
2022-11-01T09:14:05.470Z,57.70
2022-11-01T09:16:31.942Z,57.70
2022-11-01T09:18:58.427Z,57.50
2022-11-01T09:21:29.117Z,57.30
2022-11-01T09:23:58.022Z,57.20
2022-11-01T09:26:24.486Z,57.20
2022-11-01T09:28:50.966Z,57.10
2022-11-01T09:31:21.541Z,57.20
2022-11-01T09:33:48.430Z,57.10
2022-11-01T09:36:14.909Z,56.90
2022-11-01T09:38:41.381Z,56.90
2022-11-01T09:41:07.849Z,56.80
2022-11-01T09:43:34.325Z,56.60
2022-11-01T09:46:00.804Z,56.70
2022-11-01T09:48:27.298Z,56.50
2022-11-01T09:50:53.769Z,56.90
2022-11-01T09:53:20.246Z,56.80
2022-11-01T09:55:46.683Z,56.20
2022-11-01T09:58:13.170Z,55.90
2022-11-01T10:00:39.695Z,56.00
2022-11-01T10:03:06.260Z,56.40
2022-11-01T10:05:32.769Z,55.90
2022-11-01T10:07:59.405Z,55.40
2022-11-01T10:10:26.020Z,55.00
2022-11-01T10:12:52.729Z,54.70
2022-11-01T10:15:22.452Z,54.70
2022-11-01T10:17:52.170Z,54.50
2022-11-01T10:20:19.240Z,53.70
2022-11-01T10:22:45.784Z,53.40
2022-11-01T10:25:12.276Z,53.80
2022-11-01T10:27:38.803Z,53.70
2022-11-01T10:30:05.321Z,53.60
2022-11-01T10:32:31.825Z,53.50
2022-11-01T10:34:58.368Z,53.40
2022-11-01T10:37:25.110Z,53.30
2022-11-01T10:39:56.941Z,53.30
2022-11-01T10:42:28.257Z,53.20
2022-11-01T10:44:58.355Z,53.20
2022-11-01T10:47:24.858Z,53.00
2022-11-01T10:50:07.768Z,53.30
2022-11-01T10:52:34.463Z,53.00
2022-11-01T10:55:00.974Z,53.20
2022-11-01T10:57:27.469Z,53.40
2022-11-01T10:59:53.977Z,53.30
2022-11-01T11:02:20.519Z,53.50
2022-11-01T11:04:47.065Z,53.40
2022-11-01T11:07:19.922Z,53.60
2022-11-01T11:09:49.842Z,53.80
2022-11-01T11:12:16.352Z,53.70
2022-11-01T11:14:42.832Z,54.20
2022-11-01T11:17:09.310Z,54.20
2022-11-01T11:19:35.802Z,54.30
2022-11-01T11:22:02.407Z,54.30
2022-11-01T11:24:28.946Z,54.60
2022-11-01T11:26:55.461Z,54.30
2022-11-01T11:29:21.989Z,54.60
2022-11-01T11:31:48.473Z,54.40
2022-11-01T11:34:15.022Z,54.70
2022-11-01T11:36:42.052Z,54.80
2022-11-01T11:39:08.768Z,54.60
2022-11-01T11:41:35.260Z,54.70
2022-11-01T11:44:01.757Z,54.70
2022-11-01T11:46:28.222Z,54.40
2022-11-01T11:48:54.730Z,53.90
2022-11-01T11:51:21.208Z,53.70
2022-11-01T11:53:47.665Z,53.30
2022-11-01T11:56:14.175Z,53.20
2022-11-01T11:58:46.430Z,53.30
2022-11-01T12:01:12.945Z,53.30
2022-11-01T12:03:39.433Z,53.20
2022-11-01T12:06:05.896Z,52.70
2022-11-01T12:08:32.375Z,52.60
2022-11-01T12:11:04.370Z,52.60
2022-11-01T12:13:30.858Z,52.90
2022-11-01T12:15:57.342Z,53.10
2022-11-01T12:18:23.825Z,53.20
2022-11-01T12:20:50.307Z,53.10
2022-11-01T12:23:16.780Z,53.30
2022-11-01T12:25:43.263Z,53.30
2022-11-01T12:28:09.836Z,53.20
2022-11-01T12:30:36.345Z,53.10
2022-11-01T12:33:04.366Z,52.90
2022-11-01T12:35:30.895Z,53.20
2022-11-01T12:37:57.371Z,53.20
2022-11-01T12:40:23.880Z,53.20
2022-11-01T12:42:50.344Z,53.20
2022-11-01T12:45:16.797Z,53.30
2022-11-01T12:47:43.275Z,53.40
2022-11-01T12:50:09.777Z,53.50
2022-11-01T12:52:36.265Z,53.50
2022-11-01T12:55:02.782Z,53.70
2022-11-01T12:57:29.244Z,53.60
2022-11-01T12:59:55.716Z,53.60
2022-11-01T13:02:22.293Z,53.70
2022-11-01T13:04:48.814Z,53.80
2022-11-01T13:07:15.284Z,53.80
2022-11-01T13:09:41.758Z,53.80
2022-11-01T13:12:08.249Z,53.80
2022-11-01T13:14:34.713Z,53.80
2022-11-01T13:17:01.195Z,53.90
2022-11-01T13:19:27.684Z,53.90
2022-11-01T13:21:54.184Z,53.90
2022-11-01T13:24:20.653Z,54.10
2022-11-01T13:26:47.150Z,54.00
2022-11-01T13:29:13.655Z,54.10
2022-11-01T13:31:40.125Z,54.00
2022-11-01T13:34:06.603Z,54.10
2022-11-01T13:36:33.074Z,54.00
2022-11-01T13:38:59.534Z,54.10
2022-11-01T13:41:26.024Z,54.20
2022-11-01T13:43:52.498Z,54.10
2022-11-01T13:46:18.972Z,54.20
2022-11-01T13:48:45.465Z,54.20
2022-11-01T13:51:11.965Z,54.30
2022-11-01T13:53:38.423Z,54.30
2022-11-01T13:56:04.894Z,54.10
2022-11-01T13:58:31.366Z,54.30
2022-11-01T14:00:57.901Z,54.30
2022-11-01T14:03:24.433Z,54.20
2022-11-01T14:05:50.907Z,54.20
2022-11-01T14:08:17.407Z,54.20
2022-11-01T14:10:43.912Z,54.20
2022-11-01T14:13:10.374Z,54.10
2022-11-01T14:15:36.895Z,54.30
2022-11-01T14:18:03.680Z,54.20
2022-11-01T14:20:30.511Z,54.10
2022-11-01T14:22:57.007Z,54.20
2022-11-01T14:25:23.489Z,54.20
2022-11-01T14:27:51.870Z,54.30
2022-11-01T14:30:18.662Z,54.10
2022-11-01T14:32:45.141Z,54.20
2022-11-01T14:35:11.614Z,54.30
2022-11-01T14:37:38.097Z,54.10
2022-11-01T14:40:04.585Z,54.20
2022-11-01T14:42:31.061Z,54.10
2022-11-01T14:44:57.542Z,54.10
2022-11-01T14:47:24.034Z,54.20
2022-11-01T14:49:50.544Z,54.10
2022-11-01T14:52:17.029Z,54.10
2022-11-01T14:54:43.529Z,54.20
2022-11-01T14:57:10.014Z,54.10
2022-11-01T14:59:36.506Z,54.30
2022-11-01T15:02:03.576Z,54.00
2022-11-01T15:04:30.142Z,54.00
2022-11-01T15:06:56.620Z,54.10
2022-11-01T15:09:23.128Z,54.10
2022-11-01T15:11:49.603Z,54.20
2022-11-01T15:14:16.075Z,54.20
2022-11-01T15:16:42.556Z,54.10
2022-11-01T15:19:09.018Z,54.20
2022-11-01T15:21:35.495Z,54.10
2022-11-01T15:24:01.969Z,54.10
2022-11-01T15:26:28.453Z,54.30
2022-11-01T15:28:54.936Z,54.10
2022-11-01T15:31:21.426Z,54.00
2022-11-01T15:33:47.906Z,54.10
2022-11-01T15:36:14.374Z,54.00
2022-11-01T15:38:40.843Z,54.10
2022-11-01T15:41:07.330Z,54.00
2022-11-01T15:43:33.874Z,54.20
2022-11-01T15:46:00.348Z,54.10
2022-11-01T15:48:26.812Z,54.10
2022-11-01T15:50:53.310Z,54.30
2022-11-01T15:53:19.781Z,54.10
2022-11-01T15:55:46.263Z,54.30
2022-11-01T15:58:12.722Z,54.20
2022-11-01T16:00:39.227Z,54.30
2022-11-01T16:03:06.006Z,54.30
2022-11-01T16:05:32.613Z,54.30
2022-11-01T16:07:59.083Z,54.30
2022-11-01T16:10:25.574Z,54.30
2022-11-01T16:12:52.059Z,54.30
2022-11-01T16:15:18.546Z,54.30
2022-11-01T16:17:45.034Z,54.20
2022-11-01T16:20:11.523Z,54.20
2022-11-01T16:22:38.011Z,54.20
2022-11-01T16:25:04.478Z,54.20
2022-11-01T16:27:30.961Z,54.10
2022-11-01T16:29:57.451Z,54.20
2022-11-01T16:32:23.940Z,54.00
2022-11-01T16:34:50.420Z,54.20
2022-11-01T16:37:16.920Z,54.00
2022-11-01T16:39:43.377Z,54.20
2022-11-01T16:42:09.882Z,54.20
2022-11-01T16:44:36.365Z,54.00
2022-11-01T16:47:02.863Z,54.30
2022-11-01T16:49:29.338Z,54.10
2022-11-01T16:51:55.855Z,54.20
2022-11-01T16:54:22.326Z,54.30
2022-11-01T16:56:48.812Z,54.30
2022-11-01T16:59:15.303Z,54.10
2022-11-01T17:01:41.876Z,54.30
2022-11-01T17:04:08.440Z,54.00
2022-11-01T17:06:38.840Z,54.10
2022-11-01T17:09:05.857Z,54.20
2022-11-01T17:11:32.326Z,54.00
2022-11-01T17:13:58.811Z,53.90
2022-11-01T17:16:25.273Z,54.00
2022-11-01T17:18:51.738Z,54.20
2022-11-01T17:21:18.211Z,54.00
2022-11-01T17:23:44.703Z,53.90
2022-11-01T17:26:11.190Z,53.80
2022-11-01T17:28:37.674Z,53.90
2022-11-01T17:31:04.161Z,53.70
2022-11-01T17:33:30.653Z,53.70
2022-11-01T17:35:57.145Z,53.80
2022-11-01T17:38:25.484Z,53.60
2022-11-01T17:40:55.622Z,53.50
2022-11-01T17:43:22.095Z,53.40
2022-11-01T17:45:48.567Z,53.30
2022-11-01T17:48:15.065Z,53.40
2022-11-01T17:50:41.526Z,53.30
2022-11-01T17:53:08.016Z,53.10
2022-11-01T17:55:34.477Z,53.20
2022-11-01T17:58:01.259Z,52.90
2022-11-01T18:00:28.016Z,53.10
2022-11-01T18:02:54.488Z,52.80
2022-11-01T18:05:20.951Z,53.10
2022-11-01T18:07:47.416Z,52.90
2022-11-01T18:10:13.887Z,53.10
2022-11-01T18:12:40.357Z,53.10
2022-11-01T18:15:06.833Z,53.10
2022-11-01T18:17:33.461Z,52.50
2022-11-01T18:19:59.945Z,52.40
2022-11-01T18:22:26.432Z,52.40
2022-11-01T18:24:52.929Z,52.40
2022-11-01T18:27:19.425Z,52.10
2022-11-01T18:29:45.909Z,52.50
2022-11-01T18:32:12.397Z,52.50
2022-11-01T18:34:38.863Z,52.00
2022-11-01T18:37:05.345Z,52.30
2022-11-01T18:39:31.833Z,52.20
2022-11-01T18:41:58.321Z,52.00
2022-11-01T18:44:24.753Z,52.50
2022-11-01T18:46:51.241Z,52.00
2022-11-01T18:49:17.726Z,51.90
2022-11-01T18:51:44.217Z,51.70
2022-11-01T18:54:10.713Z,51.90
2022-11-01T18:56:37.188Z,51.80
2022-11-01T18:59:03.666Z,51.80
2022-11-01T19:01:30.275Z,51.90
2022-11-01T19:03:56.806Z,51.90
2022-11-01T19:06:23.293Z,51.80
2022-11-01T19:08:49.779Z,51.70
2022-11-01T19:11:16.245Z,51.70
2022-11-01T19:13:42.716Z,51.60
2022-11-01T19:16:09.208Z,51.40
2022-11-01T19:18:38.174Z,51.50
2022-11-01T19:21:08.641Z,51.70
2022-11-01T19:23:35.133Z,51.30
2022-11-01T19:26:01.624Z,51.40
2022-11-01T19:28:28.100Z,51.50
2022-11-01T19:30:54.582Z,51.30
2022-11-01T19:33:21.069Z,51.70
2022-11-01T19:35:47.533Z,51.20
2022-11-01T19:38:14.018Z,51.40
2022-11-01T19:40:40.495Z,51.40
2022-11-01T19:43:06.971Z,51.30
2022-11-01T19:45:33.462Z,51.30
2022-11-01T19:48:00.024Z,51.00
2022-11-01T19:50:26.678Z,51.10
2022-11-01T19:52:53.164Z,51.20
2022-11-01T19:55:19.648Z,51.20
2022-11-01T19:57:46.131Z,51.20
2022-11-01T20:00:12.611Z,51.30
2022-11-01T20:02:39.210Z,51.30
2022-11-01T20:05:05.774Z,51.20
2022-11-01T20:07:32.252Z,51.10
2022-11-01T20:09:59.044Z,51.10
2022-11-01T20:12:25.546Z,51.00
2022-11-01T20:14:52.029Z,51.30
2022-11-01T20:17:18.525Z,51.20
2022-11-01T20:19:45.014Z,51.20
2022-11-01T20:22:11.518Z,51.30
2022-11-01T20:24:38.011Z,50.90
2022-11-01T20:27:04.511Z,51.00
2022-11-01T20:29:30.987Z,51.10
2022-11-01T20:31:57.483Z,51.10
2022-11-01T20:34:23.953Z,51.10
2022-11-01T20:37:14.867Z,51.10
2022-11-01T20:39:36.911Z,51.00
2022-11-01T20:42:03.418Z,51.10
2022-11-01T20:44:29.875Z,51.30
2022-11-01T20:46:56.376Z,51.20
2022-11-01T20:49:22.857Z,51.10
2022-11-01T20:51:49.352Z,51.00
2022-11-01T20:54:17.938Z,51.00
2022-11-01T20:56:44.726Z,50.70
2022-11-01T20:59:12.276Z,50.90
2022-11-01T21:01:40.359Z,50.70
2022-11-01T21:04:06.937Z,50.80
2022-11-01T21:06:33.429Z,50.90
2022-11-01T21:08:59.898Z,50.90
2022-11-01T21:11:26.364Z,50.90
2022-11-01T21:13:52.837Z,50.90
2022-11-01T21:16:19.317Z,51.00
2022-11-01T21:18:45.820Z,51.00
2022-11-01T21:21:12.303Z,50.90
2022-11-01T21:23:38.786Z,51.10
2022-11-01T21:26:05.250Z,50.90
2022-11-01T21:28:31.726Z,51.00
2022-11-01T21:30:58.201Z,50.90
2022-11-01T21:33:24.690Z,50.90
2022-11-01T21:35:51.160Z,50.90
2022-11-01T21:38:17.636Z,50.80
2022-11-01T21:40:44.131Z,50.80
2022-11-01T21:43:10.574Z,50.80
2022-11-01T21:45:37.043Z,50.80
2022-11-01T21:48:03.862Z,51.00
2022-11-01T21:50:30.612Z,50.90
2022-11-01T21:52:57.129Z,50.50
2022-11-01T21:55:23.612Z,50.50
2022-11-01T21:57:50.096Z,50.20
2022-11-01T22:00:16.577Z,50.60
2022-11-01T22:02:47.161Z,50.60
2022-11-01T22:05:13.719Z,50.70
2022-11-01T22:07:40.183Z,50.70
2022-11-01T22:10:06.662Z,50.10
2022-11-01T22:12:33.149Z,50.50
2022-11-01T22:14:59.641Z,50.50
2022-11-01T22:17:26.119Z,50.20
2022-11-01T22:19:52.589Z,50.00
2022-11-01T22:22:19.042Z,50.20
2022-11-01T22:24:45.526Z,50.50
2022-11-01T22:27:12.009Z,50.40
2022-11-01T22:29:38.500Z,50.60
2022-11-01T22:32:11.036Z,50.70
2022-11-01T22:34:37.521Z,50.70
2022-11-01T22:37:03.994Z,50.30
2022-11-01T22:39:30.476Z,50.00
2022-11-01T22:41:56.961Z,50.40
2022-11-01T22:44:23.435Z,50.30
2022-11-01T22:46:53.631Z,50.50
2022-11-01T22:49:21.850Z,50.30
2022-11-01T22:51:48.341Z,50.50
2022-11-01T22:54:14.858Z,50.60
2022-11-01T22:56:41.334Z,50.70
2022-11-01T22:59:07.822Z,50.40
2022-11-01T23:01:34.684Z,50.00
2022-11-01T23:04:01.347Z,49.80
2022-11-01T23:06:27.842Z,50.20
2022-11-01T23:08:58.752Z,50.10
2022-11-01T23:11:26.777Z,50.20
2022-11-01T23:13:53.266Z,50.20
2022-11-01T23:16:19.751Z,50.30
2022-11-01T23:18:46.232Z,50.30
2022-11-01T23:21:12.720Z,50.50
2022-11-01T23:23:39.189Z,49.80
2022-11-01T23:26:05.676Z,50.20
2022-11-01T23:28:32.162Z,50.40
2022-11-01T23:30:58.645Z,50.10
2022-11-01T23:33:25.116Z,50.20
2022-11-01T23:35:51.597Z,50.20
2022-11-01T23:38:18.070Z,49.70
2022-11-01T23:40:44.555Z,49.90
2022-11-01T23:43:11.018Z,49.60
2022-11-01T23:45:37.509Z,49.50
2022-11-01T23:48:03.986Z,49.40
2022-11-01T23:50:30.495Z,49.70
2022-11-01T23:52:56.962Z,50.00
2022-11-01T23:55:23.452Z,49.90
2022-11-01T23:57:49.940Z,49.80
